createdAt,value
2022-10-29T00:01:26.023Z,99.90
2022-10-29T00:03:53.849Z,99.90
2022-10-29T00:06:21.543Z,99.90
2022-10-29T00:08:49.289Z,99.90
2022-10-29T00:11:19.928Z,99.90
2022-10-29T00:13:48.670Z,99.90
2022-10-29T00:16:20.329Z,99.90
2022-10-29T00:18:48.573Z,99.90
2022-10-29T00:21:17.910Z,99.90
2022-10-29T00:23:46.369Z,99.90
2022-10-29T00:26:14.512Z,99.90
2022-10-29T00:28:42.432Z,99.90
2022-10-29T00:31:12.993Z,99.90
2022-10-29T00:33:42.270Z,99.90
2022-10-29T00:36:12.281Z,99.90
2022-10-29T00:38:40.145Z,99.90
2022-10-29T00:41:11.503Z,99.90
2022-10-29T00:43:40.118Z,99.90
2022-10-29T00:46:10.327Z,99.90
2022-10-29T00:48:44.381Z,99.90
2022-10-29T00:51:14.890Z,99.90
2022-10-29T00:53:46.108Z,99.90
2022-10-29T00:56:14.871Z,99.90
2022-10-29T00:58:42.731Z,99.90
2022-10-29T01:01:10.949Z,99.90
2022-10-29T01:03:39.573Z,99.90
2022-10-29T01:06:09.757Z,99.90
2022-10-29T01:08:37.657Z,99.90
2022-10-29T01:11:17.001Z,99.90
2022-10-29T01:14:04.402Z,99.90
2022-10-29T01:16:43.955Z,99.90
2022-10-29T01:19:18.272Z,99.90
2022-10-29T01:21:52.738Z,99.90
2022-10-29T01:24:52.958Z,99.90
2022-10-29T01:27:53.063Z,99.90
2022-10-29T01:30:26.863Z,99.90
2022-10-29T01:33:08.595Z,99.90
2022-10-29T01:35:48.124Z,99.90
2022-10-29T01:38:25.302Z,99.90
2022-10-29T01:41:01.270Z,99.90
2022-10-29T01:43:31.872Z,99.90
2022-10-29T01:46:05.343Z,99.90
2022-10-29T01:48:38.087Z,99.90
2022-10-29T01:51:12.346Z,99.90
2022-10-29T01:53:40.635Z,99.90
2022-10-29T01:56:08.656Z,99.90
2022-10-29T01:58:37.631Z,99.90
2022-10-29T02:01:16.600Z,99.90
2022-10-29T02:03:53.589Z,99.90
2022-10-29T02:06:30.064Z,99.90
2022-10-29T02:09:06.054Z,99.90
2022-10-29T02:11:41.310Z,99.90
2022-10-29T02:14:13.390Z,99.90
2022-10-29T02:16:41.717Z,99.90
2022-10-29T02:19:10.775Z,99.90
2022-10-29T02:21:40.290Z,99.90
2022-10-29T02:24:08.806Z,99.90
2022-10-29T02:26:36.553Z,99.90
2022-10-29T02:29:04.355Z,99.90
2022-10-29T02:31:32.047Z,99.90
2022-10-29T02:33:59.778Z,99.90
2022-10-29T02:36:28.803Z,99.90
2022-10-29T02:38:56.481Z,99.90
2022-10-29T02:41:24.177Z,99.90
2022-10-29T02:43:51.917Z,99.90
2022-10-29T02:46:21.233Z,99.90
2022-10-29T02:48:49.120Z,99.90
2022-10-29T02:51:17.837Z,99.90
2022-10-29T02:53:46.856Z,99.90
2022-10-29T02:56:14.556Z,99.90
2022-10-29T02:58:42.266Z,99.90
2022-10-29T03:01:10.039Z,99.90
2022-10-29T03:03:37.855Z,99.90
2022-10-29T03:06:06.038Z,99.90
2022-10-29T03:08:33.726Z,99.90
2022-10-29T03:11:02.738Z,99.90
2022-10-29T03:13:30.509Z,99.90
2022-10-29T03:15:58.254Z,99.90
2022-10-29T03:18:25.963Z,99.90
2022-10-29T03:20:53.780Z,99.90
2022-10-29T03:23:22.061Z,99.90
2022-10-29T03:25:55.521Z,99.90
2022-10-29T03:28:27.670Z,99.90
2022-10-29T03:30:55.379Z,99.90
2022-10-29T03:33:23.118Z,99.90
2022-10-29T03:35:50.853Z,99.90
2022-10-29T03:38:18.548Z,99.90
2022-10-29T03:40:46.302Z,99.90
2022-10-29T03:43:14.062Z,99.90
2022-10-29T03:45:43.094Z,99.90
2022-10-29T03:48:10.787Z,99.90
2022-10-29T03:50:44.680Z,99.90
2022-10-29T03:53:12.551Z,99.90
2022-10-29T03:55:40.244Z,99.90
2022-10-29T03:58:07.936Z,99.90
2022-10-29T04:00:35.635Z,99.90
2022-10-29T04:03:04.833Z,99.90
2022-10-29T04:05:32.526Z,99.90
2022-10-29T04:08:00.219Z,99.90
2022-10-29T04:10:27.923Z,99.90
2022-10-29T04:12:55.941Z,99.90
2022-10-29T04:15:23.818Z,99.90
2022-10-29T04:17:51.869Z,99.90
2022-10-29T04:21:03.135Z,99.90
2022-10-29T04:24:48.626Z,99.90
2022-10-29T04:28:48.905Z,99.90
2022-10-29T04:31:16.679Z,99.90
2022-10-29T04:33:44.414Z,99.90
2022-10-29T04:36:13.535Z,99.90
2022-10-29T04:38:41.278Z,99.90
2022-10-29T04:41:08.939Z,99.90
2022-10-29T04:43:36.618Z,99.90
2022-10-29T04:46:04.379Z,99.90
2022-10-29T04:48:32.057Z,99.90
2022-10-29T04:50:59.764Z,99.90
2022-10-29T04:53:28.901Z,99.90
2022-10-29T04:56:01.117Z,99.90
2022-10-29T04:58:29.208Z,99.90
2022-10-29T05:01:02.260Z,99.90
2022-10-29T05:03:30.105Z,99.90
2022-10-29T05:05:57.859Z,99.90
2022-10-29T05:08:25.554Z,99.90
2022-10-29T05:10:54.606Z,99.90
2022-10-29T05:13:22.334Z,99.90
2022-10-29T05:15:53.577Z,99.90
2022-10-29T05:18:21.569Z,99.90
2022-10-29T05:20:49.361Z,99.90
2022-10-29T05:23:17.033Z,99.90
2022-10-29T05:25:48.927Z,99.90
2022-10-29T05:28:19.951Z,99.90
2022-10-29T05:30:48.231Z,99.90
2022-10-29T05:33:17.978Z,99.90
2022-10-29T05:35:45.949Z,99.90
2022-10-29T05:38:14.586Z,99.90
2022-10-29T05:40:44.787Z,99.90
2022-10-29T05:43:13.278Z,99.90
2022-10-29T05:45:42.951Z,99.90
2022-10-29T05:50:45.394Z,99.90
2022-10-29T05:53:14.856Z,99.90
2022-10-29T05:55:43.302Z,99.90
2022-10-29T05:58:13.384Z,99.90
2022-10-29T06:00:44.465Z,99.90
2022-10-29T06:03:14.520Z,99.90
2022-10-29T06:05:42.643Z,99.90
2022-10-29T06:08:10.669Z,99.90
2022-10-29T06:10:38.480Z,99.90
2022-10-29T06:13:11.808Z,99.90
2022-10-29T06:15:39.840Z,99.90
2022-10-29T06:18:09.119Z,99.90
2022-10-29T06:20:37.667Z,99.90
2022-10-29T06:23:05.842Z,99.90
2022-10-29T06:25:33.762Z,99.90
2022-10-29T06:28:02.632Z,99.90
2022-10-29T06:30:30.937Z,99.90
2022-10-29T06:32:59.171Z,99.90
2022-10-29T06:35:28.786Z,99.90
2022-10-29T06:37:56.816Z,99.90
2022-10-29T06:40:25.105Z,99.90
2022-10-29T06:42:59.910Z,99.90
2022-10-29T06:45:27.904Z,99.90
2022-10-29T06:47:55.831Z,99.90
2022-10-29T06:50:23.806Z,99.90
2022-10-29T06:53:00.557Z,99.90
2022-10-29T06:55:28.877Z,99.90
2022-10-29T06:58:01.596Z,99.90
2022-10-29T07:00:30.212Z,99.90
2022-10-29T07:02:58.623Z,99.90
2022-10-29T07:05:26.987Z,99.90
2022-10-29T07:07:57.348Z,99.90
2022-10-29T07:10:28.528Z,99.90
2022-10-29T07:12:56.527Z,99.90
2022-10-29T07:15:27.580Z,99.90
2022-10-29T07:17:59.240Z,99.90
2022-10-29T07:20:27.671Z,99.90
2022-10-29T07:22:55.467Z,99.90
2022-10-29T07:25:23.332Z,99.90
2022-10-29T07:27:52.599Z,99.90
2022-10-29T07:30:20.865Z,99.90
2022-10-29T07:32:48.635Z,99.90
2022-10-29T07:35:16.477Z,99.90
2022-10-29T07:37:44.180Z,99.90
2022-10-29T07:40:12.991Z,99.90
2022-10-29T07:42:40.712Z,99.90
2022-10-29T07:45:10.791Z,99.90
2022-10-29T07:47:38.586Z,99.90
2022-10-29T07:50:06.994Z,99.90
2022-10-29T07:52:34.679Z,99.90
2022-10-29T07:55:02.761Z,99.90
2022-10-29T07:57:30.546Z,99.90
2022-10-29T07:59:58.251Z,99.90
2022-10-29T08:02:27.390Z,99.90
2022-10-29T08:04:55.122Z,99.90
2022-10-29T08:07:22.809Z,99.90
2022-10-29T08:09:50.501Z,99.90
2022-10-29T08:12:18.198Z,99.90
2022-10-29T08:14:45.876Z,99.90
2022-10-29T08:17:13.641Z,99.90
2022-10-29T08:19:42.685Z,99.90
2022-10-29T08:22:10.485Z,99.90
2022-10-29T08:24:38.210Z,99.90
2022-10-29T08:27:05.985Z,99.90
2022-10-29T08:29:33.781Z,99.90
2022-10-29T08:32:01.515Z,99.90
2022-10-29T08:34:29.310Z,99.90
2022-10-29T08:36:58.311Z,99.90
2022-10-29T08:39:26.007Z,99.90
2022-10-29T08:42:03.239Z,99.90
2022-10-29T08:44:58.975Z,99.90
2022-10-29T08:47:26.795Z,99.90
2022-10-29T08:50:04.996Z,99.90
2022-10-29T08:52:44.332Z,99.90
2022-10-29T08:55:19.635Z,99.90
2022-10-29T08:57:52.990Z,99.90
2022-10-29T09:00:23.445Z,99.90
2022-10-29T09:02:56.788Z,99.90
2022-10-29T09:05:29.874Z,99.90
2022-10-29T09:08:18.789Z,99.90
2022-10-29T09:10:52.212Z,99.90
2022-10-29T09:13:33.840Z,99.90
2022-10-29T09:16:22.202Z,99.90
2022-10-29T09:19:03.841Z,99.90
2022-10-29T09:21:38.526Z,99.90
2022-10-29T09:24:15.338Z,99.90
2022-10-29T09:26:58.179Z,99.90
2022-10-29T09:29:50.539Z,99.50
2022-10-29T09:32:23.794Z,99.00
2022-10-29T09:34:53.865Z,98.50
2022-10-29T09:37:29.173Z,96.40
2022-10-29T09:39:59.489Z,95.10
2022-10-29T09:42:35.230Z,92.20
2022-10-29T09:45:04.935Z,88.40
2022-10-29T09:47:43.049Z,78.90
2022-10-29T09:50:20.358Z,74.00
2022-10-29T09:52:50.448Z,69.50
2022-10-29T09:55:24.271Z,67.20
2022-10-29T09:57:52.665Z,63.60
2022-10-29T10:00:23.455Z,59.70
2022-10-29T10:02:58.236Z,59.40
2022-10-29T10:05:28.426Z,57.70
2022-10-29T10:08:07.819Z,56.80
2022-10-29T10:10:40.087Z,56.40
2022-10-29T10:13:17.019Z,57.30
2022-10-29T10:15:52.985Z,58.10
2022-10-29T10:18:23.015Z,61.80
2022-10-29T10:21:06.547Z,64.20
2022-10-29T10:23:51.610Z,64.80
2022-10-29T10:26:36.362Z,67.00
2022-10-29T10:29:16.169Z,67.90
2022-10-29T10:31:45.399Z,67.10
2022-10-29T10:34:19.234Z,65.80
2022-10-29T10:36:50.965Z,63.90
2022-10-29T10:39:25.637Z,61.90
2022-10-29T10:41:56.967Z,62.30
2022-10-29T10:44:25.144Z,61.30
2022-10-29T10:46:55.878Z,59.00
2022-10-29T10:49:34.260Z,58.40
2022-10-29T10:52:06.335Z,57.80
2022-10-29T10:54:37.752Z,57.10
2022-10-29T10:57:22.690Z,57.70
2022-10-29T10:59:59.663Z,58.90
2022-10-29T11:02:35.412Z,58.60
2022-10-29T11:05:13.031Z,58.10
2022-10-29T11:07:44.393Z,58.30
2022-10-29T11:10:14.756Z,57.80
2022-10-29T11:12:48.593Z,57.60
2022-10-29T11:15:22.778Z,57.40
2022-10-29T11:17:56.097Z,56.70
2022-10-29T11:20:27.794Z,56.90
2022-10-29T11:23:09.844Z,57.70
2022-10-29T11:25:45.286Z,58.00
2022-10-29T11:28:24.347Z,58.50
2022-10-29T11:30:57.143Z,58.90
2022-10-29T11:33:36.659Z,59.20
2022-10-29T11:36:13.089Z,59.90
2022-10-29T11:38:45.824Z,61.00
2022-10-29T11:41:28.430Z,62.80
2022-10-29T11:43:57.583Z,63.80
2022-10-29T11:46:33.811Z,64.80
2022-10-29T11:49:17.189Z,66.30
2022-10-29T11:51:52.181Z,67.90
2022-10-29T11:54:37.719Z,69.10
2022-10-29T11:57:13.438Z,70.40
2022-10-29T11:59:58.592Z,70.90
2022-10-29T12:02:40.370Z,71.50
2022-10-29T12:05:20.906Z,71.90
2022-10-29T12:08:07.977Z,71.90
2022-10-29T12:10:46.859Z,73.10
2022-10-29T12:13:26.806Z,73.90
2022-10-29T12:16:08.646Z,74.60
2022-10-29T12:18:47.179Z,74.70
2022-10-29T12:21:22.909Z,74.40
2022-10-29T12:24:00.962Z,74.20
2022-10-29T12:26:37.105Z,74.30
2022-10-29T12:29:12.246Z,74.60
2022-10-29T12:31:50.017Z,75.30
2022-10-29T12:34:24.731Z,75.10
2022-10-29T12:37:00.062Z,75.10
2022-10-29T12:39:32.087Z,75.80
2022-10-29T12:42:04.078Z,77.20
2022-10-29T12:44:44.855Z,78.00
2022-10-29T12:47:18.966Z,78.80
2022-10-29T12:49:57.790Z,79.60
2022-10-29T12:52:33.888Z,79.40
2022-10-29T12:55:03.470Z,79.50
2022-10-29T12:57:33.185Z,79.40
2022-10-29T13:00:44.758Z,80.00
2022-10-29T13:03:14.129Z,80.50
2022-10-29T13:05:43.583Z,81.30
2022-10-29T13:08:30.021Z,81.90
2022-10-29T13:10:58.526Z,82.20
2022-10-29T13:13:53.353Z,81.60
2022-10-29T13:16:25.282Z,80.10
2022-10-29T13:19:18.050Z,79.10
2022-10-29T13:22:03.416Z,78.20
2022-10-29T13:24:32.390Z,78.50
2022-10-29T13:27:09.479Z,78.50
2022-10-29T13:29:51.581Z,79.00
2022-10-29T13:32:36.600Z,80.20
2022-10-29T13:35:31.854Z,80.30
2022-10-29T13:38:15.782Z,80.40
2022-10-29T13:41:12.020Z,80.20
2022-10-29T13:43:42.197Z,79.80
2022-10-29T13:46:32.302Z,79.30
2022-10-29T13:49:03.616Z,79.30
2022-10-29T13:51:41.719Z,79.60
2022-10-29T13:54:17.259Z,79.40
2022-10-29T13:56:47.440Z,79.60
2022-10-29T13:59:21.954Z,80.00
2022-10-29T14:02:00.262Z,80.10
2022-10-29T14:04:35.058Z,81.60
2022-10-29T14:07:12.845Z,81.40
2022-10-29T14:09:46.860Z,81.70
2022-10-29T14:12:19.871Z,82.80
2022-10-29T14:14:56.639Z,83.10
2022-10-29T14:17:24.448Z,83.70
2022-10-29T14:19:53.409Z,84.50
2022-10-29T14:22:36.708Z,85.10
2022-10-29T14:25:27.298Z,85.80
2022-10-29T14:28:25.877Z,86.40
2022-10-29T14:31:02.673Z,86.40
2022-10-29T14:33:32.345Z,86.40
2022-10-29T14:36:06.453Z,86.90
2022-10-29T14:38:42.379Z,86.60
2022-10-29T14:41:10.892Z,86.90
2022-10-29T14:43:39.314Z,84.50
2022-10-29T14:46:24.439Z,82.60
2022-10-29T14:49:00.733Z,82.50
2022-10-29T14:51:29.050Z,83.70
2022-10-29T14:54:03.051Z,84.60
2022-10-29T14:56:34.979Z,85.30
2022-10-29T14:59:08.298Z,86.10
2022-10-29T15:01:46.861Z,86.50
2022-10-29T15:04:23.848Z,87.90
2022-10-29T15:06:51.817Z,89.70
2022-10-29T15:09:27.952Z,90.20
2022-10-29T15:12:03.827Z,90.60
2022-10-29T15:14:37.625Z,91.10
2022-10-29T15:17:15.775Z,91.60
2022-10-29T15:19:45.962Z,91.60
2022-10-29T15:22:21.251Z,91.70
2022-10-29T15:24:52.370Z,91.20
2022-10-29T15:27:21.828Z,91.10
2022-10-29T15:29:50.238Z,90.70
2022-10-29T15:32:18.866Z,90.50
2022-10-29T15:34:49.571Z,90.00
2022-10-29T15:37:27.421Z,89.50
2022-10-29T15:40:10.135Z,90.10
2022-10-29T15:42:38.382Z,90.50
2022-10-29T15:45:34.219Z,90.80
2022-10-29T15:48:29.721Z,91.10
2022-10-29T15:50:58.338Z,91.20
2022-10-29T15:53:26.022Z,91.60
2022-10-29T15:55:55.070Z,92.20
2022-10-29T15:58:24.088Z,91.80
2022-10-29T16:00:52.916Z,92.00
2022-10-29T16:03:22.315Z,92.30
2022-10-29T16:05:52.288Z,92.80
2022-10-29T16:08:26.651Z,93.80
2022-10-29T16:10:56.514Z,95.00
2022-10-29T16:13:25.687Z,96.30
2022-10-29T16:15:53.473Z,97.50
2022-10-29T16:18:21.532Z,98.40
2022-10-29T16:20:50.922Z,99.50
2022-10-29T16:23:18.618Z,99.90
2022-10-29T16:25:46.314Z,99.90
2022-10-29T16:28:15.342Z,99.90
2022-10-29T16:30:43.278Z,99.90
2022-10-29T16:33:11.509Z,99.90
2022-10-29T16:35:39.191Z,99.90
2022-10-29T16:38:06.865Z,99.90
2022-10-29T16:40:34.598Z,99.90
2022-10-29T16:43:02.474Z,99.90
2022-10-29T16:45:32.598Z,99.90
2022-10-29T16:48:00.927Z,99.90
2022-10-29T16:50:30.486Z,99.90
2022-10-29T16:52:59.231Z,99.90
2022-10-29T16:55:27.330Z,99.90
2022-10-29T16:57:55.641Z,99.90
2022-10-29T17:00:25.701Z,99.90
2022-10-29T17:02:55.392Z,99.90
2022-10-29T17:05:23.334Z,99.90
2022-10-29T17:07:53.901Z,99.30
2022-10-29T17:10:22.566Z,98.60
2022-10-29T17:12:50.316Z,97.60
2022-10-29T17:15:18.246Z,97.00
2022-10-29T17:17:46.594Z,96.40
2022-10-29T17:20:15.883Z,95.00
2022-10-29T17:22:43.733Z,94.80
2022-10-29T17:25:12.165Z,94.90
2022-10-29T17:27:40.416Z,95.50
2022-10-29T17:30:09.819Z,97.30
2022-10-29T17:32:37.923Z,98.10
2022-10-29T17:35:06.261Z,99.00
2022-10-29T17:37:35.470Z,99.20
2022-10-29T17:40:06.922Z,99.20
2022-10-29T17:42:35.942Z,99.80
2022-10-29T17:45:03.752Z,99.70
2022-10-29T17:47:31.615Z,99.20
2022-10-29T17:49:59.444Z,99.40
2022-10-29T17:52:27.208Z,99.60
2022-10-29T17:54:56.327Z,99.90
2022-10-29T17:57:24.116Z,99.90
2022-10-29T17:59:51.870Z,99.90
2022-10-29T18:02:19.754Z,99.90
2022-10-29T18:04:47.623Z,99.90
2022-10-29T18:07:15.370Z,99.90
2022-10-29T18:09:43.129Z,99.90
2022-10-29T18:12:12.407Z,99.90
2022-10-29T18:14:40.171Z,99.90
2022-10-29T18:17:07.957Z,99.90
2022-10-29T18:19:35.893Z,99.90
2022-10-29T18:22:03.683Z,99.90
2022-10-29T18:24:31.799Z,99.90
2022-10-29T18:26:59.532Z,99.90
2022-10-29T18:29:28.561Z,99.90
2022-10-29T18:31:56.438Z,99.90
2022-10-29T18:34:24.225Z,99.90
2022-10-29T18:36:51.995Z,99.90
2022-10-29T18:39:19.738Z,99.90
2022-10-29T18:41:47.513Z,99.90
2022-10-29T18:44:15.341Z,99.90
2022-10-29T18:46:44.401Z,99.90
2022-10-29T18:49:12.953Z,99.90
2022-10-29T18:51:40.908Z,99.90
2022-10-29T18:54:10.732Z,99.90
2022-10-29T18:56:38.540Z,99.90
2022-10-29T18:59:06.619Z,99.90
2022-10-29T19:01:35.809Z,99.90
2022-10-29T19:04:06.674Z,99.90
2022-10-29T19:06:36.229Z,99.90
2022-10-29T19:09:06.226Z,99.90
2022-10-29T19:11:34.170Z,99.90
2022-10-29T19:14:04.050Z,99.90
2022-10-29T19:16:33.340Z,99.90
2022-10-29T19:19:03.360Z,99.90
2022-10-29T19:21:35.366Z,99.90
2022-10-29T19:24:03.362Z,99.90
2022-10-29T19:26:33.405Z,99.90
2022-10-29T19:29:02.463Z,99.90
2022-10-29T19:31:32.080Z,99.90
2022-10-29T19:34:02.587Z,99.90
2022-10-29T19:36:39.352Z,99.90
2022-10-29T19:39:07.329Z,99.90
2022-10-29T19:41:35.301Z,99.90
2022-10-29T19:44:03.967Z,99.90
2022-10-29T19:46:31.824Z,99.90
2022-10-29T19:49:00.590Z,99.90
2022-10-29T19:51:28.740Z,99.90
2022-10-29T19:54:01.359Z,99.90
2022-10-29T19:56:29.165Z,99.90
2022-10-29T19:58:56.959Z,99.90
2022-10-29T20:01:24.759Z,99.90
2022-10-29T20:03:52.514Z,99.90
2022-10-29T20:06:20.261Z,99.90
2022-10-29T20:08:48.007Z,99.90
2022-10-29T20:11:17.195Z,99.90
2022-10-29T20:13:45.022Z,99.90
2022-10-29T20:16:17.094Z,99.90
2022-10-29T20:18:45.210Z,99.90
2022-10-29T20:21:13.531Z,99.90
2022-10-29T20:23:41.610Z,99.90
2022-10-29T20:26:10.136Z,99.90
2022-10-29T20:28:39.380Z,99.90
2022-10-29T20:31:15.157Z,99.90
2022-10-29T20:33:42.857Z,99.90
2022-10-29T20:36:10.798Z,99.90
2022-10-29T20:38:38.691Z,99.90
2022-10-29T20:41:06.537Z,99.90
2022-10-29T20:43:34.512Z,99.90
2022-10-29T20:46:04.682Z,99.90
2022-10-29T20:48:32.687Z,99.90
2022-10-29T20:51:00.480Z,99.90
2022-10-29T20:53:28.314Z,99.90
2022-10-29T20:55:56.217Z,99.90
2022-10-29T20:58:24.091Z,99.90
2022-10-29T21:00:51.906Z,99.90
2022-10-29T21:03:21.178Z,99.90
2022-10-29T21:05:48.878Z,99.90
2022-10-29T21:08:16.693Z,99.90
2022-10-29T21:10:44.423Z,99.90
2022-10-29T21:13:12.183Z,99.90
2022-10-29T21:15:39.999Z,99.90
2022-10-29T21:18:07.732Z,99.90
2022-10-29T21:20:36.929Z,99.90
2022-10-29T21:23:04.632Z,99.90
2022-10-29T21:25:32.332Z,99.90
2022-10-29T21:28:00.385Z,99.90
2022-10-29T21:30:28.459Z,99.90
2022-10-29T21:32:56.433Z,99.90
2022-10-29T21:35:24.176Z,99.90
2022-10-29T21:37:53.175Z,99.90
2022-10-29T21:40:20.868Z,99.90
2022-10-29T21:42:48.579Z,99.90
2022-10-29T21:45:16.480Z,99.90
2022-10-29T21:47:44.183Z,99.90
2022-10-29T21:50:12.112Z,99.90
2022-10-29T21:52:40.369Z,99.90
2022-10-29T21:55:09.827Z,99.90
2022-10-29T21:57:37.578Z,99.90
2022-10-29T22:00:10.711Z,99.90
2022-10-29T22:02:38.422Z,99.90
2022-10-29T22:05:06.788Z,99.90
2022-10-29T22:07:34.821Z,99.90
2022-10-29T22:10:02.923Z,99.90
2022-10-29T22:12:32.182Z,99.90
2022-10-29T22:14:59.863Z,99.90
2022-10-29T22:17:28.474Z,99.90
2022-10-29T22:19:56.176Z,99.90
2022-10-29T22:22:23.965Z,99.90
2022-10-29T22:24:51.636Z,99.90
2022-10-29T22:27:19.314Z,99.90
2022-10-29T22:29:52.068Z,99.90
2022-10-29T22:32:22.189Z,99.90
2022-10-29T22:34:49.920Z,99.90
2022-10-29T22:37:17.603Z,99.90
2022-10-29T22:39:46.709Z,99.90
2022-10-29T22:42:14.452Z,99.90
2022-10-29T22:44:42.239Z,99.90
2022-10-29T22:47:11.263Z,99.90
2022-10-29T22:49:38.938Z,99.90
2022-10-29T22:52:06.638Z,99.90
2022-10-29T22:54:34.324Z,99.90
2022-10-29T22:57:02.025Z,99.90
2022-10-29T22:59:29.694Z,99.90
2022-10-29T23:01:57.465Z,99.90
2022-10-29T23:04:26.879Z,99.90
2022-10-29T23:06:57.925Z,99.90
2022-10-29T23:09:28.607Z,99.90
2022-10-29T23:11:56.282Z,99.90
2022-10-29T23:14:23.989Z,99.90
2022-10-29T23:16:51.686Z,99.90
2022-10-29T23:19:19.363Z,99.90
2022-10-29T23:21:49.001Z,99.90
2022-10-29T23:24:16.675Z,99.90
2022-10-29T23:26:44.346Z,99.90
2022-10-29T23:29:12.078Z,99.90
2022-10-29T23:31:39.738Z,99.90
2022-10-29T23:34:07.788Z,99.90
2022-10-29T23:36:35.458Z,99.90
2022-10-29T23:39:04.781Z,99.90
2022-10-29T23:41:32.557Z,99.90
2022-10-29T23:44:00.565Z,99.90
2022-10-29T23:46:28.247Z,99.90
2022-10-29T23:48:56.064Z,99.90
2022-10-29T23:51:23.949Z,99.90
2022-10-29T23:53:54.851Z,99.90
2022-10-29T23:56:26.575Z,99.90
2022-10-29T23:58:54.324Z,99.90
